sensor_id;sensor_type;location;lat;lon;timestamp;temperature;humidity
52899;DHT22;38763;53.096;6.062;2023-06-14T00:00:15;16.90;91.70
52899;DHT22;38763;53.096;6.062;2023-06-14T00:02:41;16.90;91.80
52899;DHT22;38763;53.096;6.062;2023-06-14T00:05:07;16.90;91.80
52899;DHT22;38763;53.096;6.062;2023-06-14T00:07:38;16.80;92.00
52899;DHT22;38763;53.096;6.062;2023-06-14T00:10:08;16.80;92.20
52899;DHT22;38763;53.096;6.062;2023-06-14T00:12:34;16.80;92.30
52899;DHT22;38763;53.096;6.062;2023-06-14T00:15:00;16.70;92.30
52899;DHT22;38763;53.096;6.062;2023-06-14T00:17:28;16.60;92.40
52899;DHT22;38763;53.096;6.062;2023-06-14T00:19:58;16.60;92.60
52899;DHT22;38763;53.096;6.062;2023-06-14T00:22:24;16.50;92.80
52899;DHT22;38763;53.096;6.062;2023-06-14T00:24:51;16.60;92.90
52899;DHT22;38763;53.096;6.062;2023-06-14T00:27:17;16.50;93.00
52899;DHT22;38763;53.096;6.062;2023-06-14T00:29:42;16.50;93.20
52899;DHT22;38763;53.096;6.062;2023-06-14T00:32:08;16.50;93.20
52899;DHT22;38763;53.096;6.062;2023-06-14T00:34:34;16.40;93.50
52899;DHT22;38763;53.096;6.062;2023-06-14T00:37:00;16.40;93.40
52899;DHT22;38763;53.096;6.062;2023-06-14T00:39:26;16.40;93.60
52899;DHT22;38763;53.096;6.062;2023-06-14T00:41:52;16.40;93.70
52899;DHT22;38763;53.096;6.062;2023-06-14T00:44:17;16.40;94.00
52899;DHT22;38763;53.096;6.062;2023-06-14T00:46:46;16.30;94.10
52899;DHT22;38763;53.096;6.062;2023-06-14T00:49:14;16.20;94.70
52899;DHT22;38763;53.096;6.062;2023-06-14T00:51:43;16.30;94.60
52899;DHT22;38763;53.096;6.062;2023-06-14T00:54:09;16.20;94.50
52899;DHT22;38763;53.096;6.062;2023-06-14T00:56:36;16.20;94.60
52899;DHT22;38763;53.096;6.062;2023-06-14T00:59:02;16.20;94.70
52899;DHT22;38763;53.096;6.062;2023-06-14T01:01:29;16.10;94.80
52899;DHT22;38763;53.096;6.062;2023-06-14T01:03:58;16.10;95.30
52899;DHT22;38763;53.096;6.062;2023-06-14T01:06:34;16.00;95.20
52899;DHT22;38763;53.096;6.062;2023-06-14T01:09:37;16.00;95.50
52899;DHT22;38763;53.096;6.062;2023-06-14T01:12:35;15.90;95.60
52899;DHT22;38763;53.096;6.062;2023-06-14T01:15:03;15.90;95.80
52899;DHT22;38763;53.096;6.062;2023-06-14T01:17:29;15.90;95.90
52899;DHT22;38763;53.096;6.062;2023-06-14T01:20:06;15.90;96.10
52899;DHT22;38763;53.096;6.062;2023-06-14T01:22:35;15.80;96.30
52899;DHT22;38763;53.096;6.062;2023-06-14T01:25:01;15.80;96.50
52899;DHT22;38763;53.096;6.062;2023-06-14T01:27:27;15.70;96.60
52899;DHT22;38763;53.096;6.062;2023-06-14T01:29:58;15.80;96.70
52899;DHT22;38763;53.096;6.062;2023-06-14T01:32:26;15.70;96.80
52899;DHT22;38763;53.096;6.062;2023-06-14T01:34:53;15.70;97.10
52899;DHT22;38763;53.096;6.062;2023-06-14T01:37:20;15.60;97.20
52899;DHT22;38763;53.096;6.062;2023-06-14T01:39:48;15.60;97.30
52899;DHT22;38763;53.096;6.062;2023-06-14T01:42:16;15.60;97.40
52899;DHT22;38763;53.096;6.062;2023-06-14T01:44:42;15.60;97.50
52899;DHT22;38763;53.096;6.062;2023-06-14T01:47:09;15.50;97.70
52899;DHT22;38763;53.096;6.062;2023-06-14T01:49:35;15.50;97.70
52899;DHT22;38763;53.096;6.062;2023-06-14T01:52:01;15.50;97.80
52899;DHT22;38763;53.096;6.062;2023-06-14T01:54:27;15.50;97.90
52899;DHT22;38763;53.096;6.062;2023-06-14T01:56:53;15.50;98.20
52899;DHT22;38763;53.096;6.062;2023-06-14T01:59:18;15.50;98.20
52899;DHT22;38763;53.096;6.062;2023-06-14T02:01:44;15.40;98.40
52899;DHT22;38763;53.096;6.062;2023-06-14T02:04:11;15.40;98.60
52899;DHT22;38763;53.096;6.062;2023-06-14T02:06:37;15.30;98.80
52899;DHT22;38763;53.096;6.062;2023-06-14T02:09:03;15.30;99.00
52899;DHT22;38763;53.096;6.062;2023-06-14T02:11:29;15.30;99.10
52899;DHT22;38763;53.096;6.062;2023-06-14T02:13:55;15.30;99.10
52899;DHT22;38763;53.096;6.062;2023-06-14T02:16:20;15.20;99.20
52899;DHT22;38763;53.096;6.062;2023-06-14T02:18:47;15.20;99.50
52899;DHT22;38763;53.096;6.062;2023-06-14T02:21:14;15.10;99.70
52899;DHT22;38763;53.096;6.062;2023-06-14T02:23:40;15.10;99.80
52899;DHT22;38763;53.096;6.062;2023-06-14T02:26:06;15.10;99.90
52899;DHT22;38763;53.096;6.062;2023-06-14T02:28:31;15.00;99.90
52899;DHT22;38763;53.096;6.062;2023-06-14T02:30:57;15.00;99.90
52899;DHT22;38763;53.096;6.062;2023-06-14T02:33:23;15.00;99.90
52899;DHT22;38763;53.096;6.062;2023-06-14T02:35:48;15.00;99.90
52899;DHT22;38763;53.096;6.062;2023-06-14T02:38:15;15.00;99.90
52899;DHT22;38763;53.096;6.062;2023-06-14T02:40:41;15.00;99.90
52899;DHT22;38763;53.096;6.062;2023-06-14T02:43:08;14.90;99.90
52899;DHT22;38763;53.096;6.062;2023-06-14T02:45:33;14.90;99.90
52899;DHT22;38763;53.096;6.062;2023-06-14T02:48:00;14.90;99.90
52899;DHT22;38763;53.096;6.062;2023-06-14T02:50:25;14.80;99.90
52899;DHT22;38763;53.096;6.062;2023-06-14T02:52:51;14.80;99.90
52899;DHT22;38763;53.096;6.062;2023-06-14T02:55:18;14.80;99.90
52899;DHT22;38763;53.096;6.062;2023-06-14T02:57:43;14.80;99.90
52899;DHT22;38763;53.096;6.062;2023-06-14T03:00:09;14.70;99.90
52899;DHT22;38763;53.096;6.062;2023-06-14T03:02:38;14.70;99.90
52899;DHT22;38763;53.096;6.062;2023-06-14T03:05:04;14.70;99.90
52899;DHT22;38763;53.096;6.062;2023-06-14T03:07:32;14.70;99.90
52899;DHT22;38763;53.096;6.062;2023-06-14T03:09:58;14.70;99.90
52899;DHT22;38763;53.096;6.062;2023-06-14T03:12:23;14.60;99.90
52899;DHT22;38763;53.096;6.062;2023-06-14T03:14:52;14.60;99.90
52899;DHT22;38763;53.096;6.062;2023-06-14T03:17:18;14.60;99.90
52899;DHT22;38763;53.096;6.062;2023-06-14T03:19:45;14.50;99.90
52899;DHT22;38763;53.096;6.062;2023-06-14T03:22:10;14.50;99.90
52899;DHT22;38763;53.096;6.062;2023-06-14T03:24:37;14.50;99.90
52899;DHT22;38763;53.096;6.062;2023-06-14T03:27:03;14.50;99.90
52899;DHT22;38763;53.096;6.062;2023-06-14T03:29:29;14.50;99.90
52899;DHT22;38763;53.096;6.062;2023-06-14T03:32:02;14.40;99.90
52899;DHT22;38763;53.096;6.062;2023-06-14T03:34:28;14.40;99.90
52899;DHT22;38763;53.096;6.062;2023-06-14T03:36:54;14.50;99.90
52899;DHT22;38763;53.096;6.062;2023-06-14T03:39:20;14.40;99.90
52899;DHT22;38763;53.096;6.062;2023-06-14T03:41:46;14.40;99.90
52899;DHT22;38763;53.096;6.062;2023-06-14T03:44:15;14.40;99.90
52899;DHT22;38763;53.096;6.062;2023-06-14T03:46:42;14.40;99.90
52899;DHT22;38763;53.096;6.062;2023-06-14T03:49:08;14.40;99.90
52899;DHT22;38763;53.096;6.062;2023-06-14T03:51:33;14.40;99.90
52899;DHT22;38763;53.096;6.062;2023-06-14T03:54:01;14.40;99.90
52899;DHT22;38763;53.096;6.062;2023-06-14T03:56:26;14.40;99.90
52899;DHT22;38763;53.096;6.062;2023-06-14T03:58:52;14.40;99.90
52899;DHT22;38763;53.096;6.062;2023-06-14T04:01:18;14.50;99.90
52899;DHT22;38763;53.096;6.062;2023-06-14T04:03:43;14.50;99.90
52899;DHT22;38763;53.096;6.062;2023-06-14T04:06:09;14.80;99.90
52899;DHT22;38763;53.096;6.062;2023-06-14T04:08:35;15.10;99.90
52899;DHT22;38763;53.096;6.062;2023-06-14T04:11:01;15.20;99.90
52899;DHT22;38763;53.096;6.062;2023-06-14T04:13:27;15.20;99.90
52899;DHT22;38763;53.096;6.062;2023-06-14T04:15:53;15.20;99.90
52899;DHT22;38763;53.096;6.062;2023-06-14T04:18:19;15.20;99.90
52899;DHT22;38763;53.096;6.062;2023-06-14T04:20:46;15.30;99.90
52899;DHT22;38763;53.096;6.062;2023-06-14T04:23:15;15.20;99.90
52899;DHT22;38763;53.096;6.062;2023-06-14T04:25:43;15.20;99.90
52899;DHT22;38763;53.096;6.062;2023-06-14T04:28:13;15.10;99.90
52899;DHT22;38763;53.096;6.062;2023-06-14T04:30:42;15.00;99.90
52899;DHT22;38763;53.096;6.062;2023-06-14T04:33:07;15.00;99.90
52899;DHT22;38763;53.096;6.062;2023-06-14T04:35:36;15.00;99.90
52899;DHT22;38763;53.096;6.062;2023-06-14T04:38:03;15.10;99.90
52899;DHT22;38763;53.096;6.062;2023-06-14T04:40:31;15.10;99.90
52899;DHT22;38763;53.096;6.062;2023-06-14T04:42:57;15.10;99.90
52899;DHT22;38763;53.096;6.062;2023-06-14T04:45:23;15.10;99.90
52899;DHT22;38763;53.096;6.062;2023-06-14T04:47:49;15.20;99.90
52899;DHT22;38763;53.096;6.062;2023-06-14T04:50:16;15.20;99.90
52899;DHT22;38763;53.096;6.062;2023-06-14T04:52:42;15.20;99.90
52899;DHT22;38763;53.096;6.062;2023-06-14T04:55:08;15.30;99.90
52899;DHT22;38763;53.096;6.062;2023-06-14T04:57:34;15.30;99.90
52899;DHT22;38763;53.096;6.062;2023-06-14T05:00:00;15.30;99.90
52899;DHT22;38763;53.096;6.062;2023-06-14T05:02:29;15.40;99.90
52899;DHT22;38763;53.096;6.062;2023-06-14T05:04:56;15.40;99.90
52899;DHT22;38763;53.096;6.062;2023-06-14T05:07:22;15.40;99.90
52899;DHT22;38763;53.096;6.062;2023-06-14T05:09:49;15.50;99.90
52899;DHT22;38763;53.096;6.062;2023-06-14T05:12:15;15.50;99.90
52899;DHT22;38763;53.096;6.062;2023-06-14T05:14:44;15.60;99.90
52899;DHT22;38763;53.096;6.062;2023-06-14T05:17:10;15.70;99.90
52899;DHT22;38763;53.096;6.062;2023-06-14T05:19:35;15.70;99.90
52899;DHT22;38763;53.096;6.062;2023-06-14T05:22:01;15.80;99.90
52899;DHT22;38763;53.096;6.062;2023-06-14T05:24:28;15.80;99.90
52899;DHT22;38763;53.096;6.062;2023-06-14T05:26:56;15.80;99.90
52899;DHT22;38763;53.096;6.062;2023-06-14T05:29:22;15.90;99.90
52899;DHT22;38763;53.096;6.062;2023-06-14T05:31:47;16.00;99.90
52899;DHT22;38763;53.096;6.062;2023-06-14T05:34:13;16.00;99.90
52899;DHT22;38763;53.096;6.062;2023-06-14T05:36:39;16.00;99.90
52899;DHT22;38763;53.096;6.062;2023-06-14T05:39:04;16.10;99.90
52899;DHT22;38763;53.096;6.062;2023-06-14T05:41:31;16.20;99.90
52899;DHT22;38763;53.096;6.062;2023-06-14T05:43:57;16.20;99.90
52899;DHT22;38763;53.096;6.062;2023-06-14T05:46:23;16.30;99.90
52899;DHT22;38763;53.096;6.062;2023-06-14T05:48:54;16.50;99.90
52899;DHT22;38763;53.096;6.062;2023-06-14T05:51:21;16.60;99.90
52899;DHT22;38763;53.096;6.062;2023-06-14T05:53:47;16.70;99.90
52899;DHT22;38763;53.096;6.062;2023-06-14T05:56:14;16.80;99.90
52899;DHT22;38763;53.096;6.062;2023-06-14T05:58:40;17.00;99.90
52899;DHT22;38763;53.096;6.062;2023-06-14T06:01:06;17.10;99.90
52899;DHT22;38763;53.096;6.062;2023-06-14T06:03:32;17.20;99.90
52899;DHT22;38763;53.096;6.062;2023-06-14T06:05:58;17.30;99.90
52899;DHT22;38763;53.096;6.062;2023-06-14T06:08:24;17.40;99.90
52899;DHT22;38763;53.096;6.062;2023-06-14T06:10:49;17.40;99.90
52899;DHT22;38763;53.096;6.062;2023-06-14T06:13:15;17.50;99.90
52899;DHT22;38763;53.096;6.062;2023-06-14T06:15:41;17.60;99.90
52899;DHT22;38763;53.096;6.062;2023-06-14T06:18:07;17.70;99.90
52899;DHT22;38763;53.096;6.062;2023-06-14T06:20:32;17.80;99.90
52899;DHT22;38763;53.096;6.062;2023-06-14T06:22:59;17.90;99.90
52899;DHT22;38763;53.096;6.062;2023-06-14T06:25:25;18.00;99.90
52899;DHT22;38763;53.096;6.062;2023-06-14T06:27:53;18.10;99.90
52899;DHT22;38763;53.096;6.062;2023-06-14T06:30:19;18.20;99.90
52899;DHT22;38763;53.096;6.062;2023-06-14T06:32:46;18.30;99.90
52899;DHT22;38763;53.096;6.062;2023-06-14T06:35:12;18.40;99.90
52899;DHT22;38763;53.096;6.062;2023-06-14T06:37:38;18.40;98.90
52899;DHT22;38763;53.096;6.062;2023-06-14T06:40:06;18.50;98.70
52899;DHT22;38763;53.096;6.062;2023-06-14T06:42:32;18.60;98.90
52899;DHT22;38763;53.096;6.062;2023-06-14T06:44:58;18.60;99.10
52899;DHT22;38763;53.096;6.062;2023-06-14T06:47:24;18.80;99.80
52899;DHT22;38763;53.096;6.062;2023-06-14T06:49:50;18.80;98.30
52899;DHT22;38763;53.096;6.062;2023-06-14T06:52:16;18.90;98.00
52899;DHT22;38763;53.096;6.062;2023-06-14T06:54:42;19.00;98.00
52899;DHT22;38763;53.096;6.062;2023-06-14T06:57:08;19.10;97.50
52899;DHT22;38763;53.096;6.062;2023-06-14T06:59:35;19.30;99.90
52899;DHT22;38763;53.096;6.062;2023-06-14T07:02:00;19.40;97.70
52899;DHT22;38763;53.096;6.062;2023-06-14T07:04:26;19.50;98.20
52899;DHT22;38763;53.096;6.062;2023-06-14T07:06:52;19.60;97.50
52899;DHT22;38763;53.096;6.062;2023-06-14T07:09:17;19.80;96.50
52899;DHT22;38763;53.096;6.062;2023-06-14T07:11:46;19.90;97.20
52899;DHT22;38763;53.096;6.062;2023-06-14T07:14:12;20.90;95.70
52899;DHT22;38763;53.096;6.062;2023-06-14T07:16:38;22.20;92.40
52899;DHT22;38763;53.096;6.062;2023-06-14T07:19:04;23.00;92.70
52899;DHT22;38763;53.096;6.062;2023-06-14T07:21:30;24.10;94.00
52899;DHT22;38763;53.096;6.062;2023-06-14T07:23:56;25.00;92.50
52899;DHT22;38763;53.096;6.062;2023-06-14T07:26:22;25.40;91.00
52899;DHT22;38763;53.096;6.062;2023-06-14T07:28:48;25.80;87.50
52899;DHT22;38763;53.096;6.062;2023-06-14T07:31:15;26.00;85.10
52899;DHT22;38763;53.096;6.062;2023-06-14T07:33:42;26.20;89.30
52899;DHT22;38763;53.096;6.062;2023-06-14T07:36:08;26.40;90.50
52899;DHT22;38763;53.096;6.062;2023-06-14T07:38:33;26.50;83.50
52899;DHT22;38763;53.096;6.062;2023-06-14T07:41:00;26.80;84.40
52899;DHT22;38763;53.096;6.062;2023-06-14T07:43:26;27.20;86.40
52899;DHT22;38763;53.096;6.062;2023-06-14T07:45:51;27.50;82.10
52899;DHT22;38763;53.096;6.062;2023-06-14T07:48:18;27.40;82.00
52899;DHT22;38763;53.096;6.062;2023-06-14T07:50:44;27.60;83.70
52899;DHT22;38763;53.096;6.062;2023-06-14T07:53:09;27.30;81.90
52899;DHT22;38763;53.096;6.062;2023-06-14T07:55:35;27.60;85.10
52899;DHT22;38763;53.096;6.062;2023-06-14T07:58:06;27.40;83.50
52899;DHT22;38763;53.096;6.062;2023-06-14T08:00:32;27.80;80.10
52899;DHT22;38763;53.096;6.062;2023-06-14T08:02:58;28.00;81.10
52899;DHT22;38763;53.096;6.062;2023-06-14T08:05:27;28.40;80.30
52899;DHT22;38763;53.096;6.062;2023-06-14T08:07:52;27.90;79.00
52899;DHT22;38763;53.096;6.062;2023-06-14T08:10:18;28.20;83.50
52899;DHT22;38763;53.096;6.062;2023-06-14T08:12:44;28.60;79.80
52899;DHT22;38763;53.096;6.062;2023-06-14T08:15:10;28.70;78.10
52899;DHT22;38763;53.096;6.062;2023-06-14T08:17:36;28.30;80.50
52899;DHT22;38763;53.096;6.062;2023-06-14T08:20:02;28.20;84.90
52899;DHT22;38763;53.096;6.062;2023-06-14T08:22:29;28.20;82.00
52899;DHT22;38763;53.096;6.062;2023-06-14T08:24:58;28.60;79.40
52899;DHT22;38763;53.096;6.062;2023-06-14T08:27:23;28.70;80.80
52899;DHT22;38763;53.096;6.062;2023-06-14T08:29:49;29.00;83.60
52899;DHT22;38763;53.096;6.062;2023-06-14T08:32:15;28.90;81.20
52899;DHT22;38763;53.096;6.062;2023-06-14T08:34:41;28.80;79.20
52899;DHT22;38763;53.096;6.062;2023-06-14T08:37:06;29.00;78.50
52899;DHT22;38763;53.096;6.062;2023-06-14T08:39:33;28.80;83.40
52899;DHT22;38763;53.096;6.062;2023-06-14T08:42:01;29.00;82.20
52899;DHT22;38763;53.096;6.062;2023-06-14T08:44:28;29.00;78.50
52899;DHT22;38763;53.096;6.062;2023-06-14T08:46:56;28.70;80.60
52899;DHT22;38763;53.096;6.062;2023-06-14T08:49:23;29.00;80.20
52899;DHT22;38763;53.096;6.062;2023-06-14T08:51:55;29.20;85.70
52899;DHT22;38763;53.096;6.062;2023-06-14T08:54:23;28.90;76.40
52899;DHT22;38763;53.096;6.062;2023-06-14T08:56:49;28.40;75.50
52899;DHT22;38763;53.096;6.062;2023-06-14T08:59:17;28.30;76.20
52899;DHT22;38763;53.096;6.062;2023-06-14T09:01:44;28.60;79.30
52899;DHT22;38763;53.096;6.062;2023-06-14T09:04:10;28.80;77.30
52899;DHT22;38763;53.096;6.062;2023-06-14T09:06:36;28.70;85.20
52899;DHT22;38763;53.096;6.062;2023-06-14T09:09:02;28.80;83.00
52899;DHT22;38763;53.096;6.062;2023-06-14T09:11:30;28.90;82.10
52899;DHT22;38763;53.096;6.062;2023-06-14T09:13:56;28.40;88.00
52899;DHT22;38763;53.096;6.062;2023-06-14T09:16:23;28.80;78.60
52899;DHT22;38763;53.096;6.062;2023-06-14T09:18:49;28.70;76.50
52899;DHT22;38763;53.096;6.062;2023-06-14T09:21:16;28.50;82.90
52899;DHT22;38763;53.096;6.062;2023-06-14T09:23:44;28.50;86.80
52899;DHT22;38763;53.096;6.062;2023-06-14T09:26:19;28.60;82.30
52899;DHT22;38763;53.096;6.062;2023-06-14T09:28:48;28.60;77.50
52899;DHT22;38763;53.096;6.062;2023-06-14T09:31:18;28.60;81.20
52899;DHT22;38763;53.096;6.062;2023-06-14T09:33:49;28.50;74.90
52899;DHT22;38763;53.096;6.062;2023-06-14T09:36:25;28.70;79.40
52899;DHT22;38763;53.096;6.062;2023-06-14T09:38:58;28.60;76.00
52899;DHT22;38763;53.096;6.062;2023-06-14T09:43:58;28.00;76.20
52899;DHT22;38763;53.096;6.062;2023-06-14T09:46:27;27.90;75.70
52899;DHT22;38763;53.096;6.062;2023-06-14T09:48:53;28.40;82.90
52899;DHT22;38763;53.096;6.062;2023-06-14T09:51:19;28.60;78.90
52899;DHT22;38763;53.096;6.062;2023-06-14T09:53:47;28.20;75.10
52899;DHT22;38763;53.096;6.062;2023-06-14T09:56:22;28.00;75.20
52899;DHT22;38763;53.096;6.062;2023-06-14T09:58:50;28.00;74.80
52899;DHT22;38763;53.096;6.062;2023-06-14T10:01:20;28.00;74.90
52899;DHT22;38763;53.096;6.062;2023-06-14T10:03:46;28.20;85.90
52899;DHT22;38763;53.096;6.062;2023-06-14T10:06:14;28.30;75.50
52899;DHT22;38763;53.096;6.062;2023-06-14T10:08:40;28.50;83.60
52899;DHT22;38763;53.096;6.062;2023-06-14T10:11:06;28.80;76.50
52899;DHT22;38763;53.096;6.062;2023-06-14T10:13:32;28.30;75.60
52899;DHT22;38763;53.096;6.062;2023-06-14T10:16:12;28.30;74.60
52899;DHT22;38763;53.096;6.062;2023-06-14T10:18:54;28.30;77.00
52899;DHT22;38763;53.096;6.062;2023-06-14T10:24:08;28.40;74.10
52899;DHT22;38763;53.096;6.062;2023-06-14T10:26:54;28.30;75.50
52899;DHT22;38763;53.096;6.062;2023-06-14T10:29:20;28.20;79.90
52899;DHT22;38763;53.096;6.062;2023-06-14T10:31:47;28.20;77.60
52899;DHT22;38763;53.096;6.062;2023-06-14T10:34:22;28.40;84.80
52899;DHT22;38763;53.096;6.062;2023-06-14T10:37:05;28.30;76.10
52899;DHT22;38763;53.096;6.062;2023-06-14T10:39:39;28.10;79.70
52899;DHT22;38763;53.096;6.062;2023-06-14T10:42:06;28.10;79.60
52899;DHT22;38763;53.096;6.062;2023-06-14T10:44:33;28.30;78.70
52899;DHT22;38763;53.096;6.062;2023-06-14T10:46:59;27.60;75.60
52899;DHT22;38763;53.096;6.062;2023-06-14T10:49:44;27.80;76.30
52899;DHT22;38763;53.096;6.062;2023-06-14T10:52:11;27.90;76.20
52899;DHT22;38763;53.096;6.062;2023-06-14T10:55:01;27.90;77.10
52899;DHT22;38763;53.096;6.062;2023-06-14T10:57:27;27.90;77.50
52899;DHT22;38763;53.096;6.062;2023-06-14T10:59:53;28.00;76.90
52899;DHT22;38763;53.096;6.062;2023-06-14T11:02:43;27.90;76.80
52899;DHT22;38763;53.096;6.062;2023-06-14T11:05:15;27.50;76.40
52899;DHT22;38763;53.096;6.062;2023-06-14T11:10:38;27.20;87.20
52899;DHT22;38763;53.096;6.062;2023-06-14T11:13:04;27.00;81.80
52899;DHT22;38763;53.096;6.062;2023-06-14T11:15:35;27.10;80.10
52899;DHT22;38763;53.096;6.062;2023-06-14T11:18:02;27.00;79.60
52899;DHT22;38763;53.096;6.062;2023-06-14T11:20:31;26.60;78.30
52899;DHT22;38763;53.096;6.062;2023-06-14T11:22:57;26.60;78.80
52899;DHT22;38763;53.096;6.062;2023-06-14T11:25:23;26.40;78.30
52899;DHT22;38763;53.096;6.062;2023-06-14T11:27:51;26.20;79.90
52899;DHT22;38763;53.096;6.062;2023-06-14T11:30:18;26.20;79.40
52899;DHT22;38763;53.096;6.062;2023-06-14T11:32:51;26.10;79.70
52899;DHT22;38763;53.096;6.062;2023-06-14T11:35:18;26.20;85.60
52899;DHT22;38763;53.096;6.062;2023-06-14T11:37:44;26.40;86.90
52899;DHT22;38763;53.096;6.062;2023-06-14T11:40:11;26.30;78.80
52899;DHT22;38763;53.096;6.062;2023-06-14T11:42:39;26.30;81.00
52899;DHT22;38763;53.096;6.062;2023-06-14T11:45:08;26.30;80.20
52899;DHT22;38763;53.096;6.062;2023-06-14T11:47:35;26.30;86.90
52899;DHT22;38763;53.096;6.062;2023-06-14T11:50:05;26.10;78.00
52899;DHT22;38763;53.096;6.062;2023-06-14T11:52:32;26.00;80.70
52899;DHT22;38763;53.096;6.062;2023-06-14T11:54:58;25.90;79.90
52899;DHT22;38763;53.096;6.062;2023-06-14T11:57:24;25.70;79.30
52899;DHT22;38763;53.096;6.062;2023-06-14T11:59:50;25.80;89.00
52899;DHT22;38763;53.096;6.062;2023-06-14T12:02:17;25.90;80.40
52899;DHT22;38763;53.096;6.062;2023-06-14T12:04:44;25.70;81.30
52899;DHT22;38763;53.096;6.062;2023-06-14T12:07:13;25.60;80.20
52899;DHT22;38763;53.096;6.062;2023-06-14T12:10:03;25.40;80.00
52899;DHT22;38763;53.096;6.062;2023-06-14T12:12:35;25.70;81.50
52899;DHT22;38763;53.096;6.062;2023-06-14T12:15:04;26.00;81.30
52899;DHT22;38763;53.096;6.062;2023-06-14T12:17:34;26.00;80.00
52899;DHT22;38763;53.096;6.062;2023-06-14T12:20:06;26.20;83.80
52899;DHT22;38763;53.096;6.062;2023-06-14T12:23:02;26.30;78.50
52899;DHT22;38763;53.096;6.062;2023-06-14T12:28:07;26.40;79.30
52899;DHT22;38763;53.096;6.062;2023-06-14T12:30:34;26.40;79.20
52899;DHT22;38763;53.096;6.062;2023-06-14T12:33:04;26.50;87.20
52899;DHT22;38763;53.096;6.062;2023-06-14T12:35:30;26.40;79.10
52899;DHT22;38763;53.096;6.062;2023-06-14T12:37:56;26.30;78.10
52899;DHT22;38763;53.096;6.062;2023-06-14T12:40:22;26.30;79.00
52899;DHT22;38763;53.096;6.062;2023-06-14T12:42:48;26.50;81.10
52899;DHT22;38763;53.096;6.062;2023-06-14T12:45:14;26.40;79.80
52899;DHT22;38763;53.096;6.062;2023-06-14T12:47:40;26.30;79.10
52899;DHT22;38763;53.096;6.062;2023-06-14T12:50:07;26.20;79.40
52899;DHT22;38763;53.096;6.062;2023-06-14T12:52:33;26.10;77.30
52899;DHT22;38763;53.096;6.062;2023-06-14T12:55:03;26.20;84.20
52899;DHT22;38763;53.096;6.062;2023-06-14T12:57:29;26.10;79.60
52899;DHT22;38763;53.096;6.062;2023-06-14T12:59:54;26.00;78.40
52899;DHT22;38763;53.096;6.062;2023-06-14T13:02:20;26.00;79.30
52899;DHT22;38763;53.096;6.062;2023-06-14T13:04:47;25.80;77.50
52899;DHT22;38763;53.096;6.062;2023-06-14T13:07:13;25.70;79.00
52899;DHT22;38763;53.096;6.062;2023-06-14T13:09:41;25.90;79.70
52899;DHT22;38763;53.096;6.062;2023-06-14T13:12:07;25.90;78.50
52899;DHT22;38763;53.096;6.062;2023-06-14T13:14:33;25.90;78.70
52899;DHT22;38763;53.096;6.062;2023-06-14T13:16:59;26.10;80.90
52899;DHT22;38763;53.096;6.062;2023-06-14T13:19:25;26.10;79.70
52899;DHT22;38763;53.096;6.062;2023-06-14T13:21:50;26.20;79.80
52899;DHT22;38763;53.096;6.062;2023-06-14T13:24:16;26.20;80.00
52899;DHT22;38763;53.096;6.062;2023-06-14T13:26:42;26.30;78.20
52899;DHT22;38763;53.096;6.062;2023-06-14T13:29:08;26.30;78.10
52899;DHT22;38763;53.096;6.062;2023-06-14T13:31:33;26.30;76.90
52899;DHT22;38763;53.096;6.062;2023-06-14T13:33:59;26.20;79.00
52899;DHT22;38763;53.096;6.062;2023-06-14T13:36:25;26.10;81.70
52899;DHT22;38763;53.096;6.062;2023-06-14T13:38:50;26.00;78.30
52899;DHT22;38763;53.096;6.062;2023-06-14T13:41:18;26.00;77.40
52899;DHT22;38763;53.096;6.062;2023-06-14T13:43:43;26.00;78.30
52899;DHT22;38763;53.096;6.062;2023-06-14T13:46:09;26.00;77.90
52899;DHT22;38763;53.096;6.062;2023-06-14T13:48:35;26.00;81.80
52899;DHT22;38763;53.096;6.062;2023-06-14T13:51:00;25.90;78.90
52899;DHT22;38763;53.096;6.062;2023-06-14T13:53:26;26.00;83.40
52899;DHT22;38763;53.096;6.062;2023-06-14T13:55:52;26.10;79.70
52899;DHT22;38763;53.096;6.062;2023-06-14T13:58:18;26.00;78.10
52899;DHT22;38763;53.096;6.062;2023-06-14T14:00:44;26.00;78.10
52899;DHT22;38763;53.096;6.062;2023-06-14T14:03:10;26.00;85.70
52899;DHT22;38763;53.096;6.062;2023-06-14T14:05:36;25.90;79.00
52899;DHT22;38763;53.096;6.062;2023-06-14T14:08:02;25.80;78.30
52899;DHT22;38763;53.096;6.062;2023-06-14T14:10:29;25.80;91.10
52899;DHT22;38763;53.096;6.062;2023-06-14T14:12:55;25.80;79.40
52899;DHT22;38763;53.096;6.062;2023-06-14T14:15:20;25.70;78.10
52899;DHT22;38763;53.096;6.062;2023-06-14T14:17:46;25.70;79.40
52899;DHT22;38763;53.096;6.062;2023-06-14T14:20:12;25.80;82.30
52899;DHT22;38763;53.096;6.062;2023-06-14T14:22:41;26.00;82.30
52899;DHT22;38763;53.096;6.062;2023-06-14T14:25:08;25.90;82.40
52899;DHT22;38763;53.096;6.062;2023-06-14T14:27:33;26.00;87.10
52899;DHT22;38763;53.096;6.062;2023-06-14T14:29:59;25.90;85.90
52899;DHT22;38763;53.096;6.062;2023-06-14T14:32:24;25.90;79.50
52899;DHT22;38763;53.096;6.062;2023-06-14T14:34:50;25.70;78.30
52899;DHT22;38763;53.096;6.062;2023-06-14T14:37:16;25.80;80.30
52899;DHT22;38763;53.096;6.062;2023-06-14T14:39:43;25.90;87.30
52899;DHT22;38763;53.096;6.062;2023-06-14T14:42:09;26.00;81.10
52899;DHT22;38763;53.096;6.062;2023-06-14T14:44:36;26.00;77.90
52899;DHT22;38763;53.096;6.062;2023-06-14T14:47:02;26.10;79.00
52899;DHT22;38763;53.096;6.062;2023-06-14T14:49:28;26.00;77.60
52899;DHT22;38763;53.096;6.062;2023-06-14T14:51:55;26.10;79.20
52899;DHT22;38763;53.096;6.062;2023-06-14T14:54:21;26.10;78.90
52899;DHT22;38763;53.096;6.062;2023-06-14T14:56:47;25.80;83.00
52899;DHT22;38763;53.096;6.062;2023-06-14T14:59:13;25.70;78.10
52899;DHT22;38763;53.096;6.062;2023-06-14T15:01:39;25.70;78.60
52899;DHT22;38763;53.096;6.062;2023-06-14T15:04:04;25.70;78.10
52899;DHT22;38763;53.096;6.062;2023-06-14T15:06:30;25.90;83.10
52899;DHT22;38763;53.096;6.062;2023-06-14T15:08:56;26.00;89.10
52899;DHT22;38763;53.096;6.062;2023-06-14T15:11:21;26.10;81.10
52899;DHT22;38763;53.096;6.062;2023-06-14T15:13:47;26.00;86.10
52899;DHT22;38763;53.096;6.062;2023-06-14T15:16:14;26.00;81.40
52899;DHT22;38763;53.096;6.062;2023-06-14T15:18:39;26.00;79.50
52899;DHT22;38763;53.096;6.062;2023-06-14T15:21:05;25.90;81.50
52899;DHT22;38763;53.096;6.062;2023-06-14T15:23:31;26.00;86.50
52899;DHT22;38763;53.096;6.062;2023-06-14T15:25:56;25.90;77.00
52899;DHT22;38763;53.096;6.062;2023-06-14T15:28:23;26.00;76.70
52899;DHT22;38763;53.096;6.062;2023-06-14T15:30:53;26.10;77.90
52899;DHT22;38763;53.096;6.062;2023-06-14T15:33:19;26.20;77.20
52899;DHT22;38763;53.096;6.062;2023-06-14T15:35:46;26.10;84.60
52899;DHT22;38763;53.096;6.062;2023-06-14T15:38:12;26.00;84.20
52899;DHT22;38763;53.096;6.062;2023-06-14T15:40:37;26.00;82.50